Falmouth, Kentucky
Current Conditions -  °F | °C
As of 10:53 PM on Wednesday 28 Jan 2015 (Local Time) from KLUK Reporting Station
Clear Clear  
Wind Chill: 23°   Ceiling: Unl
Heat Index: 31°   Visibility: 10mi
Dew Point: 19°   Wind: 9mph
Humidity: 61%   Direction: 140°SE
Pressure: 30.18"   Gusts: NA
Location:  38.68°N, 84.33°W
Report Text: KLUK 290353Z 14008KT 10SM CLR M01/M07 A3018 RMK AO2 SLP225 T10061072
Loading
Personal Weather Stations






























Interactive Weather Map New forecast layout! Learn more

10-Day Weather Forecast

Advertisements
Track Severe Weather on mobile